Time;durP1;ratioP1;P1;durP2;ratioP2;P2;SDS_P1;SDS_P2;PMS_P1;PMS_P2;Temp;Humidity;BMP_temperature;BMP_pressure;BME280_temperature;BME280_humidity;BME280_pressure;Samples;Min_cycle;Max_cycle;Signal;HPM_P1;HPM_P2
2020/12/07 00:00:42;;;;;;;9.38;6.82;;;3.00;84.40;;;;;;5014437;28;20104;-79
2020/12/07 00:03:08;;;;;;;9.15;7.03;;;2.90;84.50;;;;;;5014383;28;20102;-79
2020/12/07 00:05:36;;;;;;;10.38;6.88;;;2.90;84.70;;;;;;5014431;28;20026;-79
2020/12/07 00:08:02;;;;;;;8.50;5.93;;;2.90;84.80;;;;;;5014210;28;20072;-80
2020/12/07 00:10:28;;;;;;;8.70;5.53;;;2.90;84.90;;;;;;5014189;28;20419;-79
2020/12/07 00:12:53;;;;;;;7.60;5.43;;;2.90;84.90;;;;;;5013045;28;20041;-85
2020/12/07 00:15:19;;;;;;;6.22;4.47;;;2.90;84.80;;;;;;5013075;28;20116;-78
2020/12/07 00:17:44;;;;;;;6.25;4.28;;;2.90;84.80;;;;;;5014161;28;20021;-78
2020/12/07 00:20:10;;;;;;;7.07;4.80;;;2.90;84.80;;;;;;5014040;28;20026;-79
2020/12/07 00:22:36;;;;;;;5.75;4.18;;;2.90;84.80;;;;;;5014043;28;20495;-81
2020/12/07 00:25:03;;;;;;;6.13;4.15;;;2.90;85.00;;;;;;5013986;28;20017;-79
2020/12/07 00:27:31;;;;;;;5.10;4.32;;;2.80;84.90;;;;;;5013909;28;20022;-79
2020/12/07 00:29:58;;;;;;;6.03;3.63;;;2.80;85.00;;;;;;5013115;28;20072;-79
2020/12/07 00:32:24;;;;;;;4.75;3.08;;;2.90;85.20;;;;;;5014050;28;20018;-78
2020/12/07 00:34:51;;;;;;;6.38;3.70;;;2.80;84.90;;;;;;5013920;28;20030;-81
2020/12/07 00:37:17;;;;;;;4.88;3.47;;;2.80;84.90;;;;;;5013748;28;20427;-78
2020/12/07 00:39:42;;;;;;;4.82;3.33;;;2.80;85.00;;;;;;5013883;28;20454;-77
2020/12/07 00:42:11;;;;;;;4.55;3.22;;;2.80;85.10;;;;;;5013914;28;20021;-79
2020/12/07 00:44:40;;;;;;;4.72;2.88;;;2.80;85.20;;;;;;5013767;28;20109;-78
2020/12/07 00:47:07;;;;;;;6.50;3.78;;;2.80;85.30;;;;;;5013848;28;20037;-79
2020/12/07 00:49:33;;;;;;;4.97;3.58;;;2.90;85.40;;;;;;5012201;28;20364;-77
2020/12/07 00:51:59;;;;;;;3.38;2.80;;;2.90;85.30;;;;;;5013419;28;20085;-78
2020/12/07 00:54:25;;;;;;;4.88;3.53;;;2.90;85.10;;;;;;5013599;28;20034;-78
2020/12/07 00:56:55;;;;;;;4.15;3.25;;;2.90;84.90;;;;;;5013392;28;20022;-78
2020/12/07 00:59:21;;;;;;;5.10;3.10;;;2.90;84.90;;;;;;5013469;28;20066;-78
2020/12/07 01:01:47;;;;;;;5.88;3.33;;;2.90;84.90;;;;;;5013207;28;20139;-77
2020/12/07 01:04:13;;;;;;;5.60;3.72;;;3.00;84.90;;;;;;5012018;28;20060;-78
2020/12/07 01:06:38;;;;;;;4.95;3.30;;;2.90;84.80;;;;;;5014455;28;20053;-77
2020/12/07 01:09:04;;;;;;;3.97;3.10;;;2.90;84.80;;;;;;5014194;28;20034;-78
2020/12/07 01:11:30;;;;;;;4.35;2.90;;;2.90;84.90;;;;;;5012963;28;20018;-78
2020/12/07 01:13:55;;;;;;;4.13;2.85;;;2.90;84.90;;;;;;5015140;28;20029;-78
2020/12/07 01:16:24;;;;;;;4.82;2.45;;;2.90;85.00;;;;;;5014098;28;20483;-77
2020/12/07 01:18:51;;;;;;;3.80;2.75;;;2.90;84.90;;;;;;5013516;28;20148;-79
2020/12/07 01:21:18;;;;;;;2.75;2.00;;;2.90;84.90;;;;;;5005321;28;20036;-77
2020/12/07 01:23:44;;;;;;;3.78;2.50;;;2.90;84.90;;;;;;5013547;28;20026;-77
2020/12/07 01:26:14;;;;;;;2.85;2.25;;;2.90;85.00;;;;;;5013728;28;20022;-78
2020/12/07 01:28:41;;;;;;;2.70;2.00;;;2.80;85.00;;;;;;5014986;28;20025;-77
2020/12/07 01:31:07;;;;;;;2.67;1.95;;;2.80;85.10;;;;;;5013785;28;20482;-78
2020/12/07 01:33:32;;;;;;;2.63;1.98;;;2.90;85.20;;;;;;5013873;28;20022;-77
2020/12/07 01:35:58;;;;;;;3.25;1.98;;;2.80;85.10;;;;;;5013460;28;20088;-77
2020/12/07 01:38:24;;;;;;;3.17;2.25;;;2.90;85.20;;;;;;5013581;28;20076;-77
2020/12/07 01:40:50;;;;;;;2.75;2.15;;;2.90;85.20;;;;;;5013236;28;20109;-77
2020/12/07 01:43:16;;;;;;;3.53;2.10;;;2.90;85.10;;;;;;5017140;28;20030;-78
2020/12/07 01:45:42;;;;;;;3.38;2.28;;;2.80;84.90;;;;;;5017522;28;20022;-78
2020/12/07 01:48:09;;;;;;;2.58;2.08;;;2.80;85.00;;;;;;5017757;28;20156;-79
2020/12/07 01:50:39;;;;;;;2.88;1.95;;;2.90;85.20;;;;;;5018008;28;20033;-78
2020/12/07 01:53:04;;;;;;;3.50;1.90;;;2.90;85.10;;;;;;5017059;28;20168;-78
2020/12/07 01:55:30;;;;;;;4.28;2.20;;;2.90;85.00;;;;;;5017293;28;20415;-78
2020/12/07 01:57:56;;;;;;;3.85;2.00;;;2.90;84.90;;;;;;5016864;28;20040;-77
2020/12/07 02:00:23;;;;;;;3.22;1.95;;;2.90;84.90;;;;;;5016455;28;20379;-77
2020/12/07 02:02:49;;;;;;;4.97;2.10;;;2.90;85.00;;;;;;5016630;28;20069;-77
2020/12/07 02:05:15;;;;;;;3.63;2.17;;;2.90;84.90;;;;;;5016665;28;20026;-78
2020/12/07 02:07:40;;;;;;;3.20;2.25;;;2.90;84.70;;;;;;5016532;28;20084;-78
2020/12/07 02:10:06;;;;;;;2.80;1.90;;;2.90;84.70;;;;;;5016376;28;20062;-77
2020/12/07 02:12:31;;;;;;;1.80;1.48;;;2.80;83.90;;;;;;5016319;28;20080;-78
2020/12/07 02:14:57;;;;;;;1.85;0.98;;;2.70;84.40;;;;;;5016481;28;20034;-77
2020/12/07 02:17:22;;;;;;;1.17;0.95;;;2.60;84.40;;;;;;5016465;28;20100;-78
2020/12/07 02:19:51;;;;;;;1.52;0.77;;;2.60;84.30;;;;;;5016313;28;20418;-78
2020/12/07 02:22:16;;;;;;;0.93;0.77;;;2.60;84.60;;;;;;5016399;28;20026;-77
2020/12/07 02:24:42;;;;;;;0.70;0.70;;;2.60;84.50;;;;;;5016103;28;20411;-77
2020/12/07 02:27:09;;;;;;;0.73;0.68;;;2.60;84.30;;;;;;5016176;28;20022;-78
2020/12/07 02:29:35;;;;;;;1.15;0.75;;;2.60;84.40;;;;;;5016057;28;20041;-78
2020/12/07 02:32:14;;;;;;;2.00;0.57;;;2.70;84.20;;;;;;5016111;28;20022;-78
2020/12/07 02:34:41;;;;;;;0.90;0.70;;;2.70;84.00;;;;;;5016117;28;20026;-78
2020/12/07 02:37:07;;;;;;;0.73;0.70;;;2.80;83.90;;;;;;5016189;28;20029;-78
2020/12/07 02:39:32;;;;;;;1.85;1.42;;;2.80;83.30;;;;;;5015797;28;20053;-78
2020/12/07 02:42:00;;;;;;;3.10;2.15;;;2.80;83.50;;;;;;5015987;28;20062;-78
2020/12/07 02:44:26;;;;;;;6.25;3.63;;;2.80;83.80;;;;;;5016061;28;20030;-79
2020/12/07 02:46:51;;;;;;;7.15;3.80;;;2.90;84.20;;;;;;5016011;28;20395;-84
2020/12/07 02:49:17;;;;;;;6.28;3.72;;;2.90;84.50;;;;;;5015984;28;20501;-84
2020/12/07 02:51:42;;;;;;;4.93;3.10;;;2.90;84.50;;;;;;5015863;28;20029;-80
2020/12/07 02:54:08;;;;;;;4.35;2.83;;;2.90;84.60;;;;;;5014937;28;20499;-78
2020/12/07 02:56:33;;;;;;;6.60;3.38;;;2.80;84.60;;;;;;5015652;28;20021;-78
2020/12/07 02:58:59;;;;;;;6.82;2.75;;;2.80;84.70;;;;;;5014626;28;20061;-82
2020/12/07 03:01:24;;;;;;;5.22;3.33;;;2.80;84.90;;;;;;5015476;28;20049;-79
2020/12/07 03:03:50;;;;;;;4.05;2.90;;;2.80;85.00;;;;;;5014220;28;20486;-79
2020/12/07 03:06:15;;;;;;;5.45;3.00;;;2.80;85.20;;;;;;5015356;28;20200;-82
2020/12/07 03:08:41;;;;;;;5.93;2.95;;;2.80;85.20;;;;;;5015574;28;20499;-79
2020/12/07 03:11:06;;;;;;;4.25;2.40;;;2.80;85.40;;;;;;5019076;28;20026;-84
2020/12/07 03:13:32;;;;;;;4.55;2.20;;;2.80;85.50;;;;;;5015465;28;20030;-79
2020/12/07 03:15:58;;;;;;;2.65;1.85;;;2.80;85.50;;;;;;5015171;28;20076;-78
2020/12/07 03:18:23;;;;;;;4.10;1.65;;;2.80;85.40;;;;;;5014023;28;20022;-78
2020/12/07 03:20:49;;;;;;;3.63;1.85;;;2.80;85.50;;;;;;5015019;28;20434;-78
2020/12/07 03:23:14;;;;;;;3.53;1.85;;;2.80;85.70;;;;;;5015132;28;20057;-78
2020/12/07 03:25:40;;;;;;;3.00;1.80;;;2.80;85.60;;;;;;5014924;28;20026;-79
2020/12/07 03:28:06;;;;;;;3.60;1.80;;;2.80;85.60;;;;;;5014901;28;20022;-78
2020/12/07 03:30:31;;;;;;;3.78;1.85;;;2.70;85.70;;;;;;5014976;28;20026;-78
2020/12/07 03:32:57;;;;;;;7.03;2.60;;;2.70;85.90;;;;;;5014836;28;20029;-79
2020/12/07 03:35:22;;;;;;;3.97;1.95;;;2.70;85.90;;;;;;5013547;28;20112;-78
2020/12/07 03:37:48;;;;;;;3.38;1.92;;;2.80;85.90;;;;;;5014834;28;20025;-78
2020/12/07 03:40:13;;;;;;;4.22;2.10;;;2.80;85.90;;;;;;5014771;28;20101;-79
2020/12/07 03:42:39;;;;;;;2.55;1.60;;;2.80;85.90;;;;;;5014777;28;20036;-79
2020/12/07 03:45:04;;;;;;;3.67;2.05;;;2.80;85.70;;;;;;5014781;28;20029;-78
2020/12/07 03:47:30;;;;;;;4.82;2.50;;;2.80;85.60;;;;;;4997389;28;20029;-79
2020/12/07 03:49:56;;;;;;;5.40;2.38;;;2.80;85.50;;;;;;5014501;28;20394;-79
2020/12/07 03:52:21;;;;;;;5.57;2.15;;;2.80;85.60;;;;;;5014764;28;20030;-79
2020/12/07 03:54:47;;;;;;;4.25;2.78;;;2.80;85.60;;;;;;5014605;28;20084;-78
2020/12/07 03:57:12;;;;;;;4.43;2.22;;;2.80;85.30;;;;;;5014466;28;20030;-78
2020/12/07 03:59:38;;;;;;;5.63;2.47;;;2.80;85.10;;;;;;5014485;28;20037;-78
2020/12/07 04:02:03;;;;;;;3.47;1.85;;;2.80;85.20;;;;;;5014219;28;20483;-78
2020/12/07 04:04:40;;;;;;;3.22;2.00;;;2.80;85.10;;;;;;5014383;28;20450;-78
2020/12/07 04:07:06;;;;;;;1.73;1.40;;;2.90;85.20;;;;;;5014521;28;20510;-78
2020/12/07 04:09:31;;;;;;;3.60;1.83;;;2.90;85.10;;;;;;5014406;28;20120;-78
2020/12/07 04:11:57;;;;;;;4.93;2.00;;;2.90;84.90;;;;;;5014319;28;20118;-77
2020/12/07 04:14:22;;;;;;;3.17;1.67;;;2.90;84.70;;;;;;5014223;28;20034;-78
2020/12/07 04:16:48;;;;;;;2.13;1.40;;;2.90;84.60;;;;;;5014078;28;20505;-77
2020/12/07 04:19:13;;;;;;;1.83;1.52;;;2.90;84.50;;;;;;5014160;28;20034;-78
2020/12/07 04:21:39;;;;;;;1.95;1.60;;;2.90;84.50;;;;;;5014130;28;20022;-78
2020/12/07 04:24:04;;;;;;;2.35;1.38;;;2.90;84.60;;;;;;5013946;28;20030;-77
2020/12/07 04:26:30;;;;;;;1.42;1.33;;;2.90;84.20;;;;;;5013916;28;20080;-78
2020/12/07 04:28:56;;;;;;;3.03;1.52;;;3.00;83.90;;;;;;5013819;28;20044;-78
2020/12/07 04:31:21;;;;;;;1.58;1.35;;;3.00;83.60;;;;;;5013966;28;20033;-78
2020/12/07 04:33:47;;;;;;;1.77;1.40;;;3.00;83.60;;;;;;5012526;28;20033;-78
2020/12/07 04:36:12;;;;;;;3.33;1.27;;;3.00;83.50;;;;;;5013894;28;20028;-78
2020/12/07 04:38:38;;;;;;;3.95;1.80;;;3.00;83.50;;;;;;5013913;28;20022;-78
2020/12/07 04:41:04;;;;;;;2.50;1.40;;;3.00;83.70;;;;;;5013737;28;20053;-78
2020/12/07 04:43:29;;;;;;;3.88;1.60;;;3.00;83.70;;;;;;5013748;28;20064;-78
2020/12/07 04:45:55;;;;;;;1.45;1.20;;;3.00;83.90;;;;;;5013472;28;20026;-80
2020/12/07 04:48:22;;;;;;;3.35;1.48;;;3.00;83.90;;;;;;5013542;28;20053;-79
2020/12/07 04:50:48;;;;;;;1.65;1.38;;;3.00;83.90;;;;;;5013429;28;20029;-78
2020/12/07 04:53:15;;;;;;;3.05;1.20;;;3.00;83.80;;;;;;5011994;28;20022;-79
2020/12/07 04:55:42;;;;;;;1.33;1.23;;;3.00;83.80;;;;;;5013297;28;20018;-78
2020/12/07 04:58:08;;;;;;;2.45;1.38;;;3.00;83.80;;;;;;5013407;28;20069;-78
2020/12/07 05:00:34;;;;;;;3.83;1.50;;;3.00;83.70;;;;;;5013279;28;20041;-78
2020/12/07 05:03:00;;;;;;;2.78;1.80;;;3.00;83.60;;;;;;5013353;28;20026;-78
2020/12/07 05:05:25;;;;;;;4.38;1.67;;;2.90;83.70;;;;;;5013370;28;20475;-79
2020/12/07 05:07:52;;;;;;;4.70;2.50;;;2.90;83.90;;;;;;5012035;28;20498;-79
2020/12/07 05:10:31;;;;;;;4.35;3.15;;;2.90;83.90;;;;;;5013066;28;20080;-79
2020/12/07 05:13:04;;;;;;;5.70;3.88;;;2.90;84.00;;;;;;5013068;28;20014;-79
2020/12/07 05:15:31;;;;;;;5.20;3.20;;;2.80;84.20;;;;;;5013084;28;20022;-78
2020/12/07 05:17:58;;;;;;;9.07;4.03;;;2.80;84.40;;;;;;5012834;28;20022;-78
2020/12/07 05:20:25;;;;;;;4.95;3.35;;;2.80;84.70;;;;;;5012116;28;20026;-78
2020/12/07 05:22:51;;;;;;;3.45;2.72;;;2.80;84.80;;;;;;5013154;28;20030;-78
2020/12/07 05:25:17;;;;;;;4.20;2.67;;;2.80;85.00;;;;;;5011924;28;20022;-78
2020/12/07 05:27:46;;;;;;;4.50;2.80;;;2.70;85.10;;;;;;5012942;28;20022;-77
2020/12/07 05:30:35;;;;;;;4.15;2.28;;;2.80;84.90;;;;;;5013173;28;20025;-79
2020/12/07 05:32:57;;;;;;;3.83;2.47;;;2.80;84.70;;;;;;5012732;28;20048;-76
2020/12/07 05:35:23;;;;;;;3.20;2.30;;;2.80;84.90;;;;;;4995569;28;20120;-77
2020/12/07 05:37:48;;;;;;;5.95;2.10;;;2.70;85.00;;;;;;5013112;28;20533;-78
2020/12/07 05:40:15;;;;;;;4.68;2.35;;;2.70;85.20;;;;;;5013148;28;20018;-77
2020/12/07 05:42:41;;;;;;;4.25;2.20;;;2.60;85.50;;;;;;5012897;28;20104;-78
2020/12/07 05:45:08;;;;;;;3.50;2.10;;;2.50;85.70;;;;;;5013231;28;20100;-79
2020/12/07 05:47:37;;;;;;;3.40;2.30;;;2.50;86.00;;;;;;5012869;28;20026;-79
2020/12/07 05:50:03;;;;;;;3.28;2.65;;;2.50;86.00;;;;;;5013103;28;20491;-79
2020/12/07 05:52:52;;;;;;;4.45;2.78;;;2.50;86.20;;;;;;5017058;28;20041;-79
2020/12/07 05:55:20;;;;;;;3.65;2.40;;;2.50;86.30;;;;;;5012939;28;20038;-79
2020/12/07 05:57:52;;;;;;;4.97;2.92;;;2.40;86.10;;;;;;5013287;28;20014;-78
2020/12/07 06:00:22;;;;;;;8.07;3.47;;;2.50;86.20;;;;;;5011790;28;20096;-78
2020/12/07 06:02:50;;;;;;;2.90;2.35;;;2.40;86.00;;;;;;5012932;28;20110;-78
2020/12/07 06:05:16;;;;;;;3.45;1.40;;;2.40;85.80;;;;;;5013113;28;20081;-78
2020/12/07 06:07:48;;;;;;;2.72;1.63;;;2.40;85.50;;;;;;5012932;28;20443;-77
2020/12/07 06:10:16;;;;;;;2.25;1.75;;;2.30;85.40;;;;;;5012744;28;20033;-78
2020/12/07 06:12:48;;;;;;;2.97;1.88;;;2.30;85.60;;;;;;5012659;28;20029;-77
2020/12/07 06:15:18;;;;;;;4.55;2.22;;;2.20;85.60;;;;;;5011427;28;20022;-77
2020/12/07 06:17:47;;;;;;;2.35;2.03;;;2.20;85.70;;;;;;5012836;28;20098;-77
2020/12/07 06:20:25;;;;;;;3.15;2.10;;;2.20;86.10;;;;;;5012950;28;20022;-78
2020/12/07 06:22:56;;;;;;;2.70;1.98;;;2.10;86.20;;;;;;5013249;28;20084;-79
2020/12/07 06:25:25;;;;;;;3.10;2.05;;;2.10;86.10;;;;;;5012812;28;20022;-77
2020/12/07 06:27:51;;;;;;;2.72;1.60;;;2.00;86.00;;;;;;5012776;28;20101;-78
2020/12/07 06:30:19;;;;;;;2.53;1.80;;;2.00;85.70;;;;;;5016112;28;20080;-78
2020/12/07 06:32:45;;;;;;;3.42;1.90;;;2.10;85.70;;;;;;5015369;28;20068;-79
2020/12/07 06:35:12;;;;;;;2.33;1.90;;;2.10;85.80;;;;;;5015742;28;20037;-77
2020/12/07 06:38:04;;;;;;;4.47;2.47;;;2.10;85.70;;;;;;5015953;28;20049;-78
2020/12/07 06:40:30;;;;;;;3.88;2.38;;;2.10;85.80;;;;;;5012044;28;20087;-79
2020/12/07 06:42:56;;;;;;;3.63;2.47;;;2.10;85.80;;;;;;5015913;28;20018;-78
2020/12/07 06:45:27;;;;;;;4.57;2.53;;;2.00;85.50;;;;;;5014852;28;20030;-78
2020/12/07 06:47:53;;;;;;;5.38;3.10;;;2.00;85.50;;;;;;5015898;28;20050;-78
2020/12/07 06:50:22;;;;;;;4.97;3.75;;;2.00;85.50;;;;;;5015660;28;20076;-78
2020/12/07 06:52:48;;;;;;;6.82;3.63;;;2.00;85.60;;;;;;5015647;28;20379;-78
2020/12/07 06:55:17;;;;;;;5.07;3.00;;;2.00;85.80;;;;;;5015698;28;20490;-78
2020/12/07 06:57:43;;;;;;;4.82;3.05;;;2.00;85.80;;;;;;5015481;28;20497;-77
2020/12/07 07:00:17;;;;;;;6.13;3.58;;;2.00;86.00;;;;;;5015442;28;20501;-78
2020/12/07 07:02:45;;;;;;;3.47;2.15;;;2.10;85.90;;;;;;5015476;28;20050;-77
2020/12/07 07:05:12;;;;;;;3.75;2.35;;;2.10;85.70;;;;;;5014182;28;20032;-78
2020/12/07 07:07:38;;;;;;;5.63;2.45;;;2.10;85.50;;;;;;5015646;28;20049;-78
2020/12/07 07:10:06;;;;;;;4.45;2.28;;;2.10;85.40;;;;;;5015229;28;20123;-78
2020/12/07 07:12:32;;;;;;;4.82;2.50;;;2.10;85.30;;;;;;5014144;28;20025;-76
2020/12/07 07:14:58;;;;;;;5.78;2.38;;;2.10;85.20;;;;;;5015546;28;20112;-78
2020/12/07 07:17:26;;;;;;;3.75;2.67;;;2.10;85.20;;;;;;5015355;28;20006;-78
2020/12/07 07:19:52;;;;;;;6.75;3.05;;;2.10;85.10;;;;;;5015119;28;20026;-77
2020/12/07 07:22:18;;;;;;;6.90;3.25;;;2.10;85.00;;;;;;5015652;28;20088;-78
2020/12/07 07:24:50;;;;;;;4.95;3.33;;;2.10;85.00;;;;;;5013875;28;20042;-78
2020/12/07 07:30:00;;;;;;;4.60;3.25;;;2.20;84.40;;;;;;5015573;28;20057;-78
2020/12/07 07:32:25;;;;;;;8.55;3.83;;;2.20;84.30;;;;;;5016174;28;20359;-78
2020/12/07 07:34:51;;;;;;;5.93;4.05;;;2.30;84.40;;;;;;5016112;28;20029;-78
2020/12/07 07:37:17;;;;;;;8.80;4.50;;;2.30;84.40;;;;;;5008000;28;20076;-78
2020/12/07 07:39:46;;;;;;;6.57;3.85;;;2.30;84.20;;;;;;5016033;28;20065;-78
2020/12/07 07:42:14;;;;;;;5.25;3.55;;;2.30;83.90;;;;;;5020597;28;20077;-79
2020/12/07 07:44:43;;;;;;;4.88;2.95;;;2.30;83.80;;;;;;5028296;28;20033;-77
2020/12/07 07:47:15;;;;;;;4.65;2.80;;;2.40;83.60;;;;;;5031356;28;20041;-76
2020/12/07 07:52:52;;;;;;;6.05;3.10;;;2.40;83.20;;;;;;5025029;28;20072;-76
2020/12/07 07:59:11;;;;;;;5.70;4.05;;;2.50;82.50;;;;;;5014797;28;20037;-76
2020/12/07 08:18:01;;;;;;;5.28;2.85;;;3.40;82.30;;;;;;4953513;29;20054;-77
2020/12/07 08:20:33;;;;;;;5.93;3.17;;;3.90;82.50;;;;;;5003111;28;20033;-77
2020/12/07 08:23:07;;;;;;;6.50;2.97;;;4.30;80.90;;;;;;5013682;28;20479;-76
2020/12/07 08:25:50;;;;;;;4.13;2.65;;;4.50;79.00;;;;;;4996451;28;20034;-77
2020/12/07 08:28:31;;;;;;;4.70;3.03;;;4.90;79.30;;;;;;5014046;28;20018;-76
2020/12/07 08:31:03;;;;;;;4.80;2.63;;;5.20;78.90;;;;;;5013835;28;20041;-76
2020/12/07 08:33:29;;;;;;;6.00;2.63;;;5.30;76.60;;;;;;5013995;28;20108;-76
2020/12/07 08:35:56;;;;;;;5.22;2.63;;;5.70;76.10;;;;;;5013854;28;20032;-75
2020/12/07 08:38:39;;;;;;;4.55;3.33;;;5.70;73.30;;;;;;5013534;28;20408;-74
2020/12/07 08:41:12;;;;;;;5.07;3.53;;;5.80;72.30;;;;;;5012592;28;20030;-75
2020/12/07 08:43:40;;;;;;;9.45;3.90;;;5.60;71.70;;;;;;5013790;28;20375;-76
2020/12/07 08:46:09;;;;;;;6.45;3.45;;;5.60;72.10;;;;;;5013816;28;20022;-80
2020/12/07 08:48:36;;;;;;;7.75;3.95;;;5.60;71.00;;;;;;5013780;28;20033;-79
2020/12/07 08:51:01;;;;;;;9.27;4.80;;;5.40;70.50;;;;;;5013184;28;20101;-78
2020/12/07 08:53:27;;;;;;;6.85;4.65;;;5.30;70.80;;;;;;5012359;28;20064;-79
2020/12/07 08:55:52;;;;;;;4.45;3.50;;;5.20;70.70;;;;;;5013598;28;20099;-77
2020/12/07 08:58:18;;;;;;;5.82;3.78;;;5.20;71.10;;;;;;5013489;28;20466;-79
2020/12/07 09:00:44;;;;;;;5.82;3.15;;;5.30;72.20;;;;;;5013169;28;20061;-79
2020/12/07 09:03:09;;;;;;;4.93;3.38;;;5.50;71.20;;;;;;5013677;28;20017;-79
2020/12/07 09:05:35;;;;;;;5.57;3.15;;;5.70;70.70;;;;;;5013239;28;20032;-79
2020/12/07 09:08:01;;;;;;;6.88;3.33;;;5.90;69.40;;;;;;5013305;28;20072;-78
2020/12/07 09:10:26;;;;;;;5.53;3.25;;;6.10;67.70;;;;;;5012997;28;20034;-78
2020/12/07 09:12:52;;;;;;;4.05;2.80;;;6.40;66.50;;;;;;5013117;28;20105;-79
2020/12/07 09:15:18;;;;;;;4.68;2.95;;;6.70;65.70;;;;;;5013440;28;20030;-78
2020/12/07 09:17:43;;;;;;;3.88;3.10;;;6.70;64.30;;;;;;5013211;28;20018;-80
2020/12/07 09:20:09;;;;;;;11.65;3.13;;;6.50;63.80;;;;;;5013528;28;20060;-79
2020/12/07 09:22:34;;;;;;;5.22;3.33;;;6.20;64.30;;;;;;5012230;28;20025;-82
2020/12/07 09:25:00;;;;;;;8.48;4.15;;;5.80;65.20;;;;;;5013278;28;20033;-78
2020/12/07 09:27:25;;;;;;;7.13;4.18;;;5.60;66.60;;;;;;5011678;28;20026;-80
2020/12/07 09:29:51;;;;;;;4.97;3.58;;;5.50;67.90;;;;;;5012961;28;20426;-79
2020/12/07 09:32:16;;;;;;;4.85;3.25;;;5.30;68.20;;;;;;5005052;28;20049;-78
2020/12/07 09:34:42;;;;;;;9.63;4.93;;;5.20;68.80;;;;;;5012037;28;20026;-79
2020/12/07 09:37:08;;;;;;;6.85;4.18;;;5.10;69.20;;;;;;5013249;28;20022;-79
2020/12/07 09:39:33;;;;;;;7.20;4.53;;;5.00;69.90;;;;;;5013002;28;20026;-79
2020/12/07 09:41:59;;;;;;;5.57;3.38;;;4.90;70.60;;;;;;5012900;28;20029;-78
2020/12/07 09:44:25;;;;;;;8.13;3.80;;;4.90;71.00;;;;;;5012909;28;20014;-78
2020/12/07 09:46:54;;;;;;;5.20;2.88;;;5.00;70.80;;;;;;5012512;28;20054;-77
2020/12/07 09:49:20;;;;;;;3.30;2.47;;;4.90;70.50;;;;;;5012523;28;20376;-76
2020/12/07 09:51:46;;;;;;;3.97;2.40;;;4.90;70.70;;;;;;5012916;28;20024;-78
2020/12/07 09:54:12;;;;;;;4.18;2.60;;;4.90;70.80;;;;;;5011862;28;20038;-83
2020/12/07 09:56:37;;;;;;;5.05;2.60;;;5.10;71.00;;;;;;5012651;28;20014;-78
2020/12/07 09:59:03;;;;;;;6.22;2.42;;;5.30;71.00;;;;;;5013158;28;20065;-81
2020/12/07 10:01:28;;;;;;;5.35;2.95;;;5.50;70.20;;;;;;5011475;28;20058;-78
2020/12/07 10:03:54;;;;;;;7.68;2.58;;;5.70;69.50;;;;;;5015985;28;20022;-79
2020/12/07 10:06:19;;;;;;;3.53;2.10;;;5.70;68.70;;;;;;5016639;28;20030;-79
2020/12/07 10:08:46;;;;;;;2.10;1.55;;;5.70;68.10;;;;;;4998878;28;20030;-78
2020/12/07 10:11:13;;;;;;;2.05;1.85;;;5.60;67.70;;;;;;5016930;28;20029;-80
2020/12/07 10:13:39;;;;;;;2.42;1.80;;;5.40;67.90;;;;;;5016564;28;20030;-79
2020/12/07 10:16:04;;;;;;;3.97;2.00;;;5.20;68.40;;;;;;5016439;28;20387;-79
2020/12/07 10:18:30;;;;;;;2.58;2.05;;;5.00;69.30;;;;;;5016419;28;20030;-79
2020/12/07 10:20:57;;;;;;;2.83;1.70;;;4.90;69.90;;;;;;5016384;28;20033;-79
2020/12/07 10:23:22;;;;;;;2.80;2.33;;;4.80;70.40;;;;;;5019104;28;20402;-79
2020/12/07 10:25:52;;;;;;;2.03;1.83;;;4.70;70.50;;;;;;5016380;28;20033;-79
2020/12/07 10:28:18;;;;;;;2.65;1.98;;;4.70;71.10;;;;;;5016548;28;20077;-79
2020/12/07 10:30:44;;;;;;;3.38;2.42;;;5.00;71.40;;;;;;5016420;28;20060;-78
2020/12/07 10:33:10;;;;;;;2.30;1.83;;;5.20;70.80;;;;;;5016397;28;20065;-78
2020/12/07 10:35:36;;;;;;;2.20;1.98;;;5.50;69.60;;;;;;5016131;28;20053;-78
2020/12/07 10:38:02;;;;;;;2.17;1.80;;;5.80;68.20;;;;;;5016115;28;20072;-79
2020/12/07 10:40:28;;;;;;;9.48;2.47;;;6.00;67.10;;;;;;5015754;28;20025;-78
2020/12/07 10:42:53;;;;;;;3.97;3.08;;;6.00;65.60;;;;;;5015623;28;20501;-78
2020/12/07 10:45:19;;;;;;;3.17;2.53;;;5.80;65.40;;;;;;5015040;28;20030;-77
2020/12/07 10:47:44;;;;;;;2.13;1.83;;;5.60;65.80;;;;;;5016171;28;20136;-78
2020/12/07 10:50:10;;;;;;;6.95;4.00;;;5.40;66.80;;;;;;5016658;28;20045;-78
2020/12/07 10:52:35;;;;;;;4.50;3.50;;;5.40;67.20;;;;;;5016444;28;20022;-78
2020/12/07 10:55:01;;;;;;;5.47;3.85;;;5.40;67.40;;;;;;4998416;28;20475;-78
2020/12/07 10:57:27;;;;;;;4.82;3.35;;;5.40;67.30;;;;;;5015824;28;20026;-78
2020/12/07 10:59:52;;;;;;;2.95;2.65;;;5.40;67.50;;;;;;5015754;28;20180;-78
2020/12/07 11:02:18;;;;;;;5.07;2.47;;;5.60;68.10;;;;;;5016050;28;20046;-79
2020/12/07 11:04:44;;;;;;;3.95;2.58;;;5.70;68.00;;;;;;5016175;28;20029;-79
2020/12/07 11:07:14;;;;;;;3.17;2.22;;;5.80;67.80;;;;;;5015804;28;20095;-78
2020/12/07 11:09:40;;;;;;;2.65;2.20;;;6.00;67.70;;;;;;5015635;28;20040;-78
2020/12/07 11:12:11;;;;;;;2.65;2.00;;;6.10;67.40;;;;;;5016176;28;20390;-78
2020/12/07 11:14:36;;;;;;;2.90;2.10;;;6.10;67.00;;;;;;5014878;28;20021;-78
2020/12/07 11:17:02;;;;;;;2.70;1.98;;;6.10;66.30;;;;;;5015503;28;20172;-77
2020/12/07 11:19:27;;;;;;;2.35;2.08;;;6.10;66.10;;;;;;4997638;28;20034;-79
2020/12/07 11:21:53;;;;;;;2.90;2.08;;;6.10;66.20;;;;;;5015296;28;20029;-79
2020/12/07 11:24:19;;;;;;;2.30;1.80;;;6.10;66.20;;;;;;4997437;28;20079;-78
2020/12/07 11:26:46;;;;;;;2.25;2.05;;;6.00;65.90;;;;;;5014648;28;20382;-81
2020/12/07 11:29:11;;;;;;;2.60;2.08;;;6.00;65.60;;;;;;5015227;28;20046;-79
2020/12/07 11:31:37;;;;;;;3.25;2.20;;;5.90;65.10;;;;;;4997164;28;20037;-79
2020/12/07 11:34:03;;;;;;;4.15;2.75;;;5.80;65.60;;;;;;5015434;28;20370;-79
2020/12/07 11:36:28;;;;;;;4.95;3.20;;;5.70;66.40;;;;;;5015359;28;20112;-78
2020/12/07 11:44:15;;;;;;;11.38;6.63;;;5.60;68.20;;;;;;5015333;28;20037;-78
2020/12/07 11:46:51;;;;;;;12.32;7.22;;;5.50;68.10;;;;;;4996682;28;20034;-79
2020/12/07 11:49:16;;;;;;;9.25;5.45;;;5.40;68.50;;;;;;5015312;28;20057;-80
2020/12/07 11:51:48;;;;;;;11.05;6.30;;;5.30;68.90;;;;;;5015581;28;20463;-79
2020/12/07 11:54:14;;;;;;;6.15;4.22;;;5.30;69.40;;;;;;4995863;28;20037;-78
2020/12/07 11:56:40;;;;;;;4.32;2.80;;;5.20;69.30;;;;;;5206046;23;20127;-78
2020/12/07 12:02:09;;;;;;;4.85;2.75;;;4.70;69.60;;;;;;5094818;23;20049;-82
2020/12/07 12:04:38;;;;;;;7.55;3.10;;;4.70;70.90;;;;;;5016190;28;20029;-81
2020/12/07 12:07:04;;;;;;;5.00;3.40;;;4.80;71.40;;;;;;5157565;23;20021;-82
2020/12/07 12:09:29;;;;;;;4.35;3.20;;;4.80;71.80;;;;;;5016186;28;20060;-80
2020/12/07 12:11:55;;;;;;;4.60;3.70;;;4.80;72.20;;;;;;5015812;28;20025;-80
2020/12/07 12:14:20;;;;;;;5.47;3.70;;;4.90;72.00;;;;;;5033473;28;20399;-79
2020/12/07 12:16:47;;;;;;;5.65;3.35;;;4.90;71.70;;;;;;5033213;28;20017;-81
2020/12/07 12:19:13;;;;;;;7.93;4.78;;;4.80;71.40;;;;;;5015785;28;20017;-79
2020/12/07 12:21:39;;;;;;;6.22;4.35;;;4.80;71.60;;;;;;5015671;28;20031;-80
2020/12/07 12:24:05;;;;;;;5.88;4.05;;;4.80;71.70;;;;;;5033986;28;20025;-83
2020/12/07 12:26:35;;;;;;;7.03;4.40;;;4.80;72.30;;;;;;5015004;28;20029;-77
2020/12/07 12:29:02;;;;;;;4.75;3.22;;;4.80;72.40;;;;;;5033458;28;20030;-79
2020/12/07 12:31:28;;;;;;;5.70;3.25;;;4.90;72.30;;;;;;5033503;28;20079;-79
2020/12/07 12:33:55;;;;;;;6.07;3.90;;;4.80;72.00;;;;;;5033620;28;20021;-84
2020/12/07 12:36:23;;;;;;;5.50;4.00;;;4.90;72.10;;;;;;5033710;28;20036;-83
2020/12/07 12:38:48;;;;;;;7.10;4.38;;;4.80;72.00;;;;;;5033599;28;20097;-81
2020/12/07 12:41:15;;;;;;;6.10;4.53;;;4.70;72.00;;;;;;5033887;28;20060;-82
2020/12/07 12:43:41;;;;;;;7.03;4.22;;;4.60;71.90;;;;;;5030842;28;20037;-85
2020/12/07 12:46:07;;;;;;;6.38;3.92;;;4.60;72.30;;;;;;5001941;28;20605;-84
2020/12/07 12:48:33;;;;;;;6.97;4.63;;;4.40;72.40;;;;;;5013867;28;20060;-87
2020/12/07 12:50:59;;;;;;;7.60;4.47;;;4.40;72.80;;;;;;4996979;28;20478;-86
2020/12/07 12:53:26;;;;;;;7.30;5.05;;;4.30;72.90;;;;;;5015360;28;20029;-85
2020/12/07 12:55:52;;;;;;;5.88;3.97;;;4.30;73.10;;;;;;4996239;28;20030;-81
2020/12/07 12:58:18;;;;;;;5.88;4.07;;;4.30;73.30;;;;;;4995841;28;20033;-77
2020/12/07 13:00:45;;;;;;;8.00;4.20;;;4.40;73.30;;;;;;5013399;28;20030;-77
2020/12/07 13:03:11;;;;;;;6.32;4.00;;;4.40;73.20;;;;;;5013701;28;20022;-78
2020/12/07 13:05:37;;;;;;;5.90;3.78;;;4.40;72.70;;;;;;5013396;28;20029;-77
2020/12/07 13:08:02;;;;;;;7.53;4.80;;;4.50;73.30;;;;;;5014033;28;20052;-76
2020/12/07 13:10:28;;;;;;;5.97;4.40;;;4.50;72.40;;;;;;5019656;28;20336;-76
2020/12/07 13:12:53;;;;;;;8.27;4.63;;;4.60;72.50;;;;;;5021924;28;20038;-78
2020/12/07 13:15:21;;;;;;;4.93;3.67;;;4.60;73.00;;;;;;5021317;28;20026;-77
2020/12/07 13:17:52;;;;;;;9.82;4.97;;;4.60;72.50;;;;;;5022505;28;20022;-78
2020/12/07 13:20:25;;;;;;;7.47;5.15;;;4.50;72.50;;;;;;5013561;28;20021;-77
2020/12/07 13:23:00;;;;;;;8.15;5.18;;;4.40;72.70;;;;;;5013325;28;20542;-78
2020/12/07 13:25:36;;;;;;;7.47;5.05;;;4.50;73.10;;;;;;5013491;28;20096;-78
2020/12/07 13:28:12;;;;;;;;;;;4.50;73.50;;;;;;4996486;28;20022;-80
2020/12/07 13:30:37;;;;;;;6.47;4.50;;;4.40;73.70;;;;;;5013454;28;19968;-81